createdAt,value
2018-12-26T00:01:55.622Z,6.90
2018-12-26T00:04:24.330Z,7.00
2018-12-26T00:06:53.019Z,7.00
2018-12-26T00:09:21.703Z,7.00
2018-12-26T00:11:50.402Z,7.00
2018-12-26T00:14:19.070Z,7.00
2018-12-26T00:16:47.745Z,7.00
2018-12-26T00:19:16.456Z,6.90
2018-12-26T00:21:45.142Z,7.10
2018-12-26T00:24:13.928Z,6.70
2018-12-26T00:26:42.698Z,6.70
2018-12-26T00:29:11.370Z,6.80
2018-12-26T00:31:40.058Z,6.70
2018-12-26T00:34:08.749Z,6.70
2018-12-26T00:36:37.498Z,6.70
2018-12-26T00:39:07.079Z,6.80
2018-12-26T00:41:35.766Z,6.70
2018-12-26T00:44:04.476Z,6.80
2018-12-26T00:46:33.371Z,6.40
2018-12-26T00:49:02.260Z,6.50
2018-12-26T00:51:30.988Z,6.50
2018-12-26T00:53:59.659Z,6.50
2018-12-26T00:56:28.330Z,6.50
2018-12-26T00:58:57.075Z,6.60
2018-12-26T01:01:25.764Z,6.30
2018-12-26T01:03:54.575Z,6.40
2018-12-26T01:06:23.310Z,6.60
2018-12-26T01:08:52.031Z,6.50
2018-12-26T01:11:20.714Z,6.50
2018-12-26T01:13:49.377Z,6.40
2018-12-26T01:16:18.079Z,6.40
2018-12-26T01:18:46.749Z,6.40
2018-12-26T01:21:15.573Z,6.40
2018-12-26T01:23:44.236Z,6.60
2018-12-26T01:26:19.124Z,6.50
2018-12-26T01:28:43.370Z,6.40
2018-12-26T01:31:12.164Z,6.50
2018-12-26T01:33:40.867Z,6.40
2018-12-26T01:36:09.606Z,6.40
2018-12-26T01:38:38.347Z,6.40
2018-12-26T01:41:07.029Z,6.50
2018-12-26T01:43:35.713Z,6.50
2018-12-26T01:46:04.448Z,6.50
2018-12-26T01:48:33.124Z,6.30
2018-12-26T01:51:01.867Z,6.50
2018-12-26T01:53:30.556Z,6.40
2018-12-26T01:55:59.395Z,6.30
2018-12-26T01:58:28.111Z,6.20
2018-12-26T02:00:56.798Z,6.10
2018-12-26T02:03:25.473Z,6.30
2018-12-26T02:05:54.215Z,6.30
2018-12-26T02:08:22.893Z,6.30
2018-12-26T02:10:51.814Z,6.20
2018-12-26T02:13:20.495Z,6.30
2018-12-26T02:15:49.205Z,6.30
2018-12-26T02:18:17.907Z,6.20
2018-12-26T02:20:46.911Z,6.40
2018-12-26T02:23:15.590Z,6.10
2018-12-26T02:25:44.361Z,6.40
2018-12-26T02:28:13.067Z,6.10
2018-12-26T02:30:41.752Z,6.30
2018-12-26T02:33:10.437Z,6.30
2018-12-26T02:35:39.159Z,6.20
2018-12-26T02:38:07.839Z,6.20
2018-12-26T02:40:36.512Z,6.10
2018-12-26T02:43:05.263Z,6.10
2018-12-26T02:45:33.934Z,5.80
2018-12-26T02:48:02.602Z,6.00
2018-12-26T02:50:31.309Z,6.10
2018-12-26T02:53:00.021Z,5.80
2018-12-26T02:55:28.702Z,5.80
2018-12-26T02:57:57.420Z,5.80
2018-12-26T03:00:26.116Z,6.10
2018-12-26T03:02:54.798Z,5.90
2018-12-26T03:05:23.557Z,5.80
2018-12-26T03:07:52.296Z,6.20
2018-12-26T03:10:20.962Z,5.80
2018-12-26T03:12:49.888Z,6.10
2018-12-26T03:15:18.562Z,5.90
2018-12-26T03:17:47.240Z,6.00
2018-12-26T03:20:15.956Z,6.00
2018-12-26T03:22:44.632Z,5.90
2018-12-26T03:25:13.327Z,6.00
2018-12-26T03:27:42.011Z,6.00
2018-12-26T03:30:10.719Z,5.80
2018-12-26T03:32:39.404Z,5.70
2018-12-26T03:35:08.101Z,6.00
2018-12-26T03:37:36.809Z,6.30
2018-12-26T03:40:07.827Z,6.00
2018-12-26T03:42:36.720Z,6.20
2018-12-26T03:45:05.894Z,6.10
2018-12-26T03:47:35.005Z,6.20
2018-12-26T03:50:04.124Z,6.00
2018-12-26T03:52:32.803Z,5.90
2018-12-26T03:55:01.470Z,5.80
2018-12-26T03:57:30.175Z,6.00
2018-12-26T03:59:58.893Z,6.00
2018-12-26T04:02:27.558Z,6.10
2018-12-26T04:04:56.458Z,6.20
2018-12-26T04:07:25.147Z,5.80
2018-12-26T04:09:53.966Z,5.90
2018-12-26T04:12:22.763Z,5.80
2018-12-26T04:14:51.553Z,6.00
2018-12-26T04:17:20.451Z,6.00
2018-12-26T04:19:49.142Z,5.90
2018-12-26T04:22:17.966Z,6.00
2018-12-26T04:24:47.129Z,6.00
2018-12-26T04:27:15.956Z,5.80
2018-12-26T04:29:44.790Z,5.90
2018-12-26T04:32:13.591Z,5.70
2018-12-26T04:34:42.389Z,5.80
2018-12-26T04:37:11.068Z,5.70
2018-12-26T04:39:39.882Z,5.90
2018-12-26T04:42:08.551Z,6.00
2018-12-26T04:44:37.226Z,6.00
2018-12-26T04:47:05.956Z,6.10
2018-12-26T04:49:34.648Z,5.80
2018-12-26T04:52:03.408Z,6.20
2018-12-26T04:54:32.113Z,5.80
2018-12-26T04:57:00.812Z,6.30
2018-12-26T04:59:29.514Z,6.10
2018-12-26T05:01:58.237Z,6.20
2018-12-26T05:04:26.917Z,6.20
2018-12-26T05:06:55.581Z,6.10
2018-12-26T05:09:24.390Z,6.20
2018-12-26T05:11:53.058Z,5.90
2018-12-26T05:14:21.772Z,6.30
2018-12-26T05:16:50.450Z,6.30
2018-12-26T05:19:19.170Z,6.30
2018-12-26T05:21:47.868Z,6.20
2018-12-26T05:24:16.575Z,6.30
2018-12-26T05:26:45.229Z,6.30
2018-12-26T05:29:13.911Z,6.40
2018-12-26T05:31:42.619Z,6.20
2018-12-26T05:34:11.323Z,6.40
2018-12-26T05:36:40.036Z,6.20
2018-12-26T05:39:08.733Z,6.30
2018-12-26T05:41:37.413Z,6.10
2018-12-26T05:44:06.130Z,6.20
2018-12-26T05:46:34.790Z,6.40
2018-12-26T05:49:03.586Z,6.30
2018-12-26T05:51:32.315Z,6.40
2018-12-26T05:54:01.029Z,6.30
2018-12-26T05:56:29.789Z,6.50
2018-12-26T05:58:58.518Z,6.10
2018-12-26T06:01:27.198Z,6.30
2018-12-26T06:03:55.870Z,6.40
2018-12-26T06:06:24.608Z,6.40
2018-12-26T06:08:53.336Z,6.50
2018-12-26T06:11:22.057Z,6.50
2018-12-26T06:13:50.726Z,6.40
2018-12-26T06:16:19.463Z,6.30
2018-12-26T06:18:48.127Z,6.50
2018-12-26T06:21:16.912Z,6.40
2018-12-26T06:23:45.700Z,6.50
2018-12-26T06:26:14.375Z,6.30
2018-12-26T06:28:43.099Z,6.50
2018-12-26T06:31:11.799Z,6.30
2018-12-26T06:33:40.496Z,6.60
2018-12-26T06:36:09.201Z,6.60
2018-12-26T06:38:37.888Z,6.60
2018-12-26T06:41:06.566Z,6.60
2018-12-26T06:43:35.279Z,6.60
2018-12-26T06:46:03.957Z,6.40
2018-12-26T06:48:32.651Z,6.50
2018-12-26T06:51:01.372Z,6.60
2018-12-26T06:53:30.067Z,6.60
2018-12-26T06:55:58.876Z,6.60
2018-12-26T06:58:27.568Z,6.40
2018-12-26T07:00:56.259Z,6.40
2018-12-26T07:03:26.102Z,6.60
2018-12-26T07:05:54.917Z,6.60
2018-12-26T07:08:23.579Z,6.60
2018-12-26T07:10:52.303Z,6.60
2018-12-26T07:13:20.976Z,6.70
2018-12-26T07:15:49.702Z,6.70
2018-12-26T07:18:18.420Z,6.60
2018-12-26T07:20:47.101Z,6.80
2018-12-26T07:23:15.799Z,6.50
2018-12-26T07:25:44.544Z,6.60
2018-12-26T07:28:13.217Z,6.50
2018-12-26T07:30:41.913Z,6.70
2018-12-26T07:33:10.625Z,6.60
2018-12-26T07:35:39.332Z,6.50
2018-12-26T07:38:08.103Z,6.50
2018-12-26T07:40:36.785Z,6.40
2018-12-26T07:43:05.485Z,6.80
2018-12-26T07:45:34.157Z,6.80
2018-12-26T07:48:02.868Z,6.70
2018-12-26T07:50:31.546Z,6.80
2018-12-26T07:53:00.294Z,6.40
2018-12-26T07:55:29.012Z,6.50
2018-12-26T07:57:57.704Z,6.60
2018-12-26T08:00:26.455Z,6.70
2018-12-26T08:02:55.188Z,6.70
2018-12-26T08:05:24.019Z,6.60
2018-12-26T08:07:52.700Z,6.80
2018-12-26T08:10:21.391Z,6.80
2018-12-26T08:12:50.067Z,6.80
2018-12-26T08:15:18.789Z,6.70
2018-12-26T08:17:47.558Z,6.60
2018-12-26T08:20:16.249Z,6.80
2018-12-26T08:22:45.073Z,6.70
2018-12-26T08:25:13.847Z,6.80
2018-12-26T08:27:42.567Z,6.80
2018-12-26T08:30:11.234Z,6.60
2018-12-26T08:32:39.939Z,6.70
2018-12-26T08:35:08.642Z,6.90
2018-12-26T08:37:37.320Z,6.60
2018-12-26T08:40:07.463Z,6.80
2018-12-26T08:42:36.145Z,6.80
2018-12-26T08:45:05.328Z,7.10
2018-12-26T08:47:34.029Z,7.10
2018-12-26T08:50:02.755Z,7.00
2018-12-26T08:52:31.843Z,6.90
2018-12-26T08:55:00.623Z,7.10
2018-12-26T08:57:29.416Z,7.10
2018-12-26T08:59:58.094Z,6.80
2018-12-26T09:02:26.809Z,7.10
2018-12-26T09:04:55.474Z,6.80
2018-12-26T09:07:24.174Z,6.80
2018-12-26T09:09:52.887Z,7.00
2018-12-26T09:12:21.600Z,7.00
2018-12-26T09:14:50.330Z,6.90
2018-12-26T09:17:19.044Z,7.10
2018-12-26T09:19:47.718Z,7.00
2018-12-26T09:22:16.431Z,6.90
2018-12-26T09:24:45.113Z,6.90
2018-12-26T09:27:13.906Z,6.90
2018-12-26T09:29:42.585Z,6.90
2018-12-26T09:32:11.278Z,7.10
2018-12-26T09:34:40.014Z,7.10
2018-12-26T09:37:08.697Z,7.10
2018-12-26T09:39:37.451Z,7.20
2018-12-26T09:42:06.164Z,7.20
2018-12-26T09:44:34.845Z,7.20
2018-12-26T09:47:03.562Z,7.10
2018-12-26T09:49:32.283Z,7.20
2018-12-26T09:52:01.132Z,7.30
2018-12-26T09:54:29.899Z,7.20
2018-12-26T09:56:58.611Z,7.10
2018-12-26T09:59:27.323Z,7.10
2018-12-26T10:01:56.027Z,7.30
2018-12-26T10:04:24.703Z,7.40
2018-12-26T10:06:53.398Z,7.00
2018-12-26T10:09:22.099Z,7.40
2018-12-26T10:11:50.773Z,7.20
2018-12-26T10:14:19.585Z,7.30
2018-12-26T10:16:48.263Z,7.20
2018-12-26T10:19:16.973Z,7.20
2018-12-26T10:21:45.792Z,7.20
2018-12-26T10:24:14.486Z,7.40
2018-12-26T10:26:43.198Z,7.30
2018-12-26T10:29:11.925Z,7.60
2018-12-26T10:31:40.582Z,7.70
2018-12-26T10:34:09.391Z,7.50
2018-12-26T10:36:38.072Z,7.30
2018-12-26T10:39:06.986Z,7.40
2018-12-26T10:41:35.681Z,7.80
2018-12-26T10:44:04.399Z,7.60
2018-12-26T10:46:33.103Z,7.80
2018-12-26T10:49:01.808Z,7.60
2018-12-26T10:51:30.571Z,7.60
2018-12-26T10:53:59.295Z,7.60
2018-12-26T10:56:28.032Z,8.00
2018-12-26T10:58:56.702Z,7.70
2018-12-26T11:01:25.411Z,8.00
2018-12-26T11:03:54.231Z,7.80
2018-12-26T11:06:22.953Z,7.60
2018-12-26T11:08:51.631Z,7.80
2018-12-26T11:11:20.411Z,7.80
2018-12-26T11:13:49.113Z,7.90
2018-12-26T11:16:17.844Z,8.10
2018-12-26T11:18:46.562Z,8.00
2018-12-26T11:21:15.251Z,7.80
2018-12-26T11:23:43.938Z,8.00
2018-12-26T11:26:12.645Z,7.80
2018-12-26T11:28:41.308Z,7.80
2018-12-26T11:31:09.981Z,7.90
2018-12-26T11:33:38.712Z,8.00
2018-12-26T11:36:07.397Z,8.00
2018-12-26T11:38:36.419Z,8.20
2018-12-26T11:41:05.303Z,7.80
2018-12-26T11:43:34.104Z,7.70
2018-12-26T11:46:02.803Z,7.80
2018-12-26T11:48:31.569Z,7.90
2018-12-26T11:51:00.251Z,7.60
2018-12-26T11:53:28.956Z,7.60
2018-12-26T11:55:57.626Z,7.70
2018-12-26T11:58:26.309Z,7.80
2018-12-26T12:00:55.007Z,8.20
2018-12-26T12:03:23.721Z,8.10
2018-12-26T12:05:52.403Z,8.10
2018-12-26T12:08:21.118Z,8.00
2018-12-26T12:10:50.209Z,8.30
2018-12-26T12:13:18.985Z,8.50
2018-12-26T12:15:48.069Z,8.50
2018-12-26T12:18:16.756Z,8.20
2018-12-26T12:20:45.431Z,8.30
2018-12-26T12:23:14.217Z,8.50
2018-12-26T12:25:42.888Z,8.20
2018-12-26T12:28:11.598Z,8.40
2018-12-26T12:30:40.444Z,8.50
2018-12-26T12:33:09.147Z,8.60
2018-12-26T12:35:37.972Z,8.60
2018-12-26T12:38:06.666Z,8.70
2018-12-26T12:40:35.549Z,8.40
2018-12-26T12:43:04.362Z,8.70
2018-12-26T12:45:33.052Z,8.80
2018-12-26T12:48:01.832Z,8.90
2018-12-26T12:50:30.546Z,8.90
2018-12-26T12:52:59.253Z,8.80
2018-12-26T12:55:28.123Z,8.50
2018-12-26T12:57:57.100Z,8.90
2018-12-26T13:00:25.807Z,8.90
2018-12-26T13:03:00.418Z,8.80
2018-12-26T13:05:25.020Z,8.90
2018-12-26T13:07:53.751Z,8.90
2018-12-26T13:10:22.411Z,8.90
2018-12-26T13:12:51.115Z,8.90
2018-12-26T13:15:19.826Z,8.80
2018-12-26T13:17:48.487Z,9.00
2018-12-26T13:20:17.155Z,9.00
2018-12-26T13:22:45.864Z,8.80
2018-12-26T13:25:14.565Z,9.00
2018-12-26T13:27:43.254Z,8.90
2018-12-26T13:30:11.945Z,8.90
2018-12-26T13:32:40.618Z,8.90
2018-12-26T13:35:09.430Z,9.10
2018-12-26T13:37:44.206Z,9.20
2018-12-26T13:40:12.908Z,9.20
2018-12-26T13:42:41.570Z,9.10
2018-12-26T13:45:10.277Z,9.30
2018-12-26T13:47:38.959Z,9.20
2018-12-26T13:50:08.265Z,9.10
2018-12-26T13:52:36.976Z,9.20
2018-12-26T13:55:05.661Z,9.20
2018-12-26T13:57:34.497Z,8.90
2018-12-26T14:00:05.664Z,9.20
2018-12-26T14:02:34.376Z,9.10
2018-12-26T14:05:03.047Z,9.30
2018-12-26T14:07:31.762Z,9.30
2018-12-26T14:10:00.434Z,9.10
2018-12-26T14:12:29.161Z,9.20
2018-12-26T14:14:57.912Z,9.20
2018-12-26T14:17:26.611Z,9.10
2018-12-26T14:19:55.324Z,9.20
2018-12-26T14:22:24.219Z,9.20
2018-12-26T14:24:52.911Z,9.20
2018-12-26T14:27:29.092Z,9.20
2018-12-26T14:29:52.068Z,9.20
2018-12-26T14:32:20.772Z,9.20
2018-12-26T14:34:49.501Z,9.30
2018-12-26T14:37:18.206Z,9.50
2018-12-26T14:39:46.892Z,9.60
2018-12-26T14:42:15.608Z,9.20
2018-12-26T14:44:44.334Z,9.30
2018-12-26T14:47:12.991Z,9.30
2018-12-26T14:49:41.684Z,9.40
2018-12-26T14:52:10.385Z,9.50
2018-12-26T14:54:39.072Z,9.40
2018-12-26T14:57:07.893Z,9.50
2018-12-26T14:59:36.851Z,9.50
2018-12-26T15:02:05.563Z,9.60
2018-12-26T15:04:35.689Z,9.20
2018-12-26T15:07:04.527Z,9.40
2018-12-26T15:09:33.201Z,9.50
2018-12-26T15:12:01.908Z,9.50
2018-12-26T15:14:30.580Z,9.50
2018-12-26T15:16:59.271Z,9.60
2018-12-26T15:19:28.018Z,9.60
2018-12-26T15:21:56.696Z,9.50
2018-12-26T15:24:25.424Z,9.50
2018-12-26T15:26:54.091Z,9.50
2018-12-26T15:29:22.778Z,9.60
2018-12-26T15:31:51.559Z,9.60
2018-12-26T15:34:20.424Z,9.50
2018-12-26T15:36:49.143Z,9.60
2018-12-26T15:39:17.979Z,9.40
2018-12-26T15:41:46.693Z,9.60
2018-12-26T15:44:15.429Z,9.60
2018-12-26T15:46:44.150Z,9.50
2018-12-26T15:49:12.803Z,9.60
2018-12-26T15:51:41.511Z,9.60
2018-12-26T15:54:10.181Z,9.60
2018-12-26T15:56:38.883Z,9.60
2018-12-26T15:59:07.558Z,9.50
2018-12-26T16:01:36.390Z,9.60
2018-12-26T16:04:09.441Z,9.40
2018-12-26T16:06:38.014Z,9.10
2018-12-26T16:09:06.892Z,9.50
2018-12-26T16:11:35.581Z,9.50
2018-12-26T16:14:04.393Z,9.20
2018-12-26T16:16:33.109Z,9.50
2018-12-26T16:19:01.956Z,9.10
2018-12-26T16:21:30.641Z,9.50
2018-12-26T16:23:59.356Z,9.20
2018-12-26T16:26:28.036Z,9.30
2018-12-26T16:28:56.765Z,9.40
2018-12-26T16:31:25.677Z,9.50
2018-12-26T16:33:54.367Z,9.20
2018-12-26T16:36:23.060Z,9.20
2018-12-26T16:38:51.762Z,9.20
2018-12-26T16:41:20.572Z,9.10
2018-12-26T16:43:49.242Z,9.20
2018-12-26T16:46:17.945Z,9.20
2018-12-26T16:48:46.659Z,9.20
2018-12-26T16:51:15.367Z,9.00
2018-12-26T16:53:44.025Z,8.90
2018-12-26T16:56:12.730Z,8.80
2018-12-26T16:58:41.412Z,8.70
2018-12-26T17:01:10.091Z,8.70
2018-12-26T17:03:38.806Z,8.90
2018-12-26T17:06:07.511Z,8.90
2018-12-26T17:08:36.183Z,9.10
2018-12-26T17:11:04.899Z,9.20
2018-12-26T17:13:33.582Z,9.00
2018-12-26T17:16:02.400Z,9.20
2018-12-26T17:18:31.099Z,9.00
2018-12-26T17:20:59.779Z,9.00
2018-12-26T17:23:28.494Z,8.80
2018-12-26T17:25:57.215Z,8.90
2018-12-26T17:28:25.919Z,8.70
2018-12-26T17:30:54.572Z,8.90
2018-12-26T17:33:23.274Z,8.90
2018-12-26T17:35:51.971Z,9.10
2018-12-26T17:38:20.667Z,9.20
2018-12-26T17:40:49.339Z,9.00
2018-12-26T17:43:18.028Z,9.10
2018-12-26T17:45:46.729Z,8.70
2018-12-26T17:48:15.412Z,9.10
2018-12-26T17:50:49.146Z,9.20
2018-12-26T17:53:23.451Z,8.90
2018-12-26T17:56:09.380Z,8.80
2018-12-26T17:58:49.655Z,8.80
2018-12-26T18:01:30.273Z,8.70
2018-12-26T18:03:58.944Z,8.70
2018-12-26T18:06:27.663Z,8.60
2018-12-26T18:08:56.329Z,8.50
2018-12-26T18:11:25.024Z,8.40
2018-12-26T18:13:53.722Z,8.50
2018-12-26T18:16:22.431Z,8.70
2018-12-26T18:18:51.103Z,8.50
2018-12-26T18:21:19.811Z,8.70
2018-12-26T18:23:48.539Z,8.50
2018-12-26T18:26:17.211Z,8.50
2018-12-26T18:28:45.901Z,8.60
2018-12-26T18:31:21.998Z,8.90
2018-12-26T18:33:45.000Z,8.80
2018-12-26T18:36:13.714Z,8.40
2018-12-26T18:38:42.402Z,8.40
2018-12-26T18:41:11.113Z,8.60
2018-12-26T18:43:39.842Z,8.40
2018-12-26T18:46:08.532Z,8.40
2018-12-26T18:48:37.204Z,8.40
2018-12-26T18:51:05.943Z,8.40
2018-12-26T18:53:34.646Z,8.40
2018-12-26T18:56:03.314Z,8.40
2018-12-26T18:58:32.148Z,8.30
2018-12-26T19:01:00.851Z,8.60
2018-12-26T19:03:29.522Z,8.40
2018-12-26T19:05:58.295Z,8.50
2018-12-26T19:08:26.954Z,8.60
2018-12-26T19:10:55.712Z,8.60
2018-12-26T19:13:24.407Z,8.60
2018-12-26T19:15:53.138Z,8.40
2018-12-26T19:18:21.994Z,8.40
2018-12-26T19:20:50.710Z,8.40
2018-12-26T19:23:19.391Z,8.50
2018-12-26T19:25:48.088Z,8.30
2018-12-26T19:28:16.853Z,8.40
2018-12-26T19:30:45.561Z,8.30
2018-12-26T19:33:14.251Z,8.40
2018-12-26T19:35:42.984Z,8.30
2018-12-26T19:38:11.673Z,8.30
2018-12-26T19:40:40.562Z,8.50
2018-12-26T19:43:09.267Z,8.50
2018-12-26T19:45:40.089Z,8.50
2018-12-26T19:48:08.501Z,8.10
2018-12-26T19:50:37.194Z,8.30
2018-12-26T19:53:05.909Z,8.90
2018-12-26T19:55:34.625Z,8.50
2018-12-26T19:58:03.314Z,8.40
2018-12-26T20:00:32.086Z,8.40
2018-12-26T20:03:00.789Z,8.30
2018-12-26T20:05:29.536Z,8.30
2018-12-26T20:07:58.313Z,8.50
2018-12-26T20:10:26.997Z,8.10
2018-12-26T20:12:55.711Z,8.10
2018-12-26T20:15:24.385Z,8.50
2018-12-26T20:17:53.107Z,8.20
2018-12-26T20:20:21.774Z,8.20
2018-12-26T20:22:50.502Z,8.10
2018-12-26T20:25:19.194Z,8.10
2018-12-26T20:27:48.033Z,8.00
2018-12-26T20:30:16.699Z,8.10
2018-12-26T20:32:45.412Z,8.20
2018-12-26T20:35:14.140Z,8.10
2018-12-26T20:37:42.799Z,8.30
2018-12-26T20:40:11.607Z,8.10
2018-12-26T20:42:40.341Z,8.30
2018-12-26T20:45:09.056Z,8.10
2018-12-26T20:47:37.775Z,8.20
2018-12-26T20:50:07.548Z,8.10
2018-12-26T20:52:36.250Z,8.00
2018-12-26T20:55:05.357Z,8.00
2018-12-26T20:57:34.123Z,8.10
2018-12-26T21:00:03.034Z,8.40
2018-12-26T21:02:31.690Z,8.60
2018-12-26T21:05:00.549Z,8.00
2018-12-26T21:07:29.357Z,8.10
2018-12-26T21:09:58.077Z,8.10
2018-12-26T21:12:27.274Z,8.10
2018-12-26T21:14:56.039Z,8.10
2018-12-26T21:17:24.833Z,8.10
2018-12-26T21:19:53.552Z,8.10
2018-12-26T21:22:22.211Z,8.00
2018-12-26T21:24:50.926Z,8.10
2018-12-26T21:27:19.591Z,8.10
2018-12-26T21:29:48.290Z,8.10
2018-12-26T21:32:17.090Z,8.00
2018-12-26T21:34:45.752Z,8.00
2018-12-26T21:37:14.455Z,8.10
2018-12-26T21:39:43.160Z,8.10
2018-12-26T21:42:11.975Z,8.00
2018-12-26T21:44:40.655Z,8.10
2018-12-26T21:47:09.367Z,7.80
2018-12-26T21:49:38.023Z,8.10
2018-12-26T21:52:06.735Z,8.20
2018-12-26T21:54:35.387Z,7.90
2018-12-26T21:57:04.099Z,7.70
2018-12-26T21:59:32.788Z,7.80
2018-12-26T22:02:01.445Z,8.00
2018-12-26T22:04:30.167Z,7.90
2018-12-26T22:06:58.831Z,7.80
2018-12-26T22:09:27.546Z,7.90
2018-12-26T22:11:56.204Z,8.00
2018-12-26T22:14:24.919Z,7.90
2018-12-26T22:16:53.580Z,7.80
2018-12-26T22:19:22.362Z,7.80
2018-12-26T22:21:51.166Z,7.80
2018-12-26T22:24:19.859Z,7.90
2018-12-26T22:26:48.555Z,7.70
2018-12-26T22:29:17.222Z,7.80
2018-12-26T22:31:45.959Z,7.90
2018-12-26T22:34:14.623Z,8.20
2018-12-26T22:36:43.295Z,7.80
2018-12-26T22:39:11.987Z,7.80
2018-12-26T22:41:40.647Z,8.00
2018-12-26T22:44:09.355Z,8.10
2018-12-26T22:46:38.040Z,8.00
2018-12-26T22:49:06.744Z,8.10
2018-12-26T22:51:41.787Z,8.10
2018-12-26T22:54:05.885Z,8.10
2018-12-26T22:56:34.598Z,8.20
2018-12-26T22:59:03.271Z,8.00
2018-12-26T23:01:31.953Z,8.00
2018-12-26T23:04:00.665Z,7.80
2018-12-26T23:06:29.455Z,8.00
2018-12-26T23:08:58.211Z,7.80
2018-12-26T23:11:26.912Z,7.90
2018-12-26T23:13:55.615Z,7.90
2018-12-26T23:16:24.286Z,7.80
2018-12-26T23:18:52.995Z,8.00
2018-12-26T23:21:21.677Z,8.30
2018-12-26T23:23:50.420Z,8.20
2018-12-26T23:26:19.114Z,8.00
2018-12-26T23:28:47.886Z,8.00
2018-12-26T23:31:16.587Z,8.00
2018-12-26T23:33:45.254Z,7.90
2018-12-26T23:36:13.953Z,7.80
2018-12-26T23:38:42.612Z,7.80
2018-12-26T23:41:11.320Z,7.80
2018-12-26T23:43:40.035Z,7.80
2018-12-26T23:46:08.818Z,8.10
2018-12-26T23:48:37.496Z,7.80
2018-12-26T23:51:06.377Z,7.90
2018-12-26T23:53:35.060Z,8.10
2018-12-26T23:56:03.745Z,8.20
2018-12-26T23:58:32.435Z,8.00
